Time;durP1;ratioP1;P1;durP2;ratioP2;P2;SDS_P1;SDS_P2;PMS_P1;PMS_P2;Temp;Humidity;BMP_temperature;BMP_pressure;BME280_temperature;BME280_humidity;BME280_pressure;Samples;Min_cycle;Max_cycle;Signal;HPM_P1;HPM_P2
2022/03/15 00:00:19;;;;;;;22.20;10.30;;;;;;;0.90;59.81;100606.45;25131;1316;3026899;-70
2022/03/15 00:02:49;;;;;;;22.00;11.30;;;;;;;0.90;59.93;100609.04;25123;1315;3028559;-72
2022/03/15 00:05:18;;;;;;;27.40;12.10;;;;;;;0.92;60.04;100609.03;25114;1315;3027509;-70
2022/03/15 00:07:49;;;;;;;24.80;11.20;;;;;;;0.86;60.34;100613.70;25111;1315;3026456;-69
2022/03/15 00:10:18;;;;;;;23.40;11.40;;;;;;;0.87;60.41;100608.52;25155;1315;3028952;-68
2022/03/15 00:12:49;;;;;;;23.90;12.00;;;;;;;0.85;60.35;100596.96;25109;1315;3028283;-67
2022/03/15 00:15:18;;;;;;;25.50;11.10;;;;;;;0.83;60.47;100601.63;25148;1316;3026593;-68
2022/03/15 00:18:08;;;;;;;23.70;11.00;;;;;;;0.78;60.58;100607.67;25097;1315;3051110;-71
2022/03/15 00:20:39;;;;;;;21.30;11.50;;;;;;;0.73;60.83;100598.02;25127;1315;3028851;-71
2022/03/15 00:23:08;;;;;;;19.90;10.90;;;;;;;0.76;60.88;100596.98;25110;1316;3026623;-68
2022/03/15 00:25:39;;;;;;;21.70;11.00;;;;;;;0.76;61.05;100593.38;25090;1315;3026882;-71
2022/03/15 00:28:08;;;;;;;20.20;11.70;;;;;;;0.68;61.40;100599.77;25127;1315;3027018;-69
2022/03/15 00:30:37;;;;;;;24.40;11.80;;;;;;;0.67;61.24;100583.22;25113;1315;3056667;-68
2022/03/15 00:33:08;;;;;;;17.30;10.20;;;;;;;0.64;61.55;100585.80;25092;1316;3026291;-70
2022/03/15 00:35:37;;;;;;;20.30;10.50;;;;;;;0.66;61.28;100586.15;25168;1315;3026517;-68
2022/03/15 00:38:07;;;;;;;17.40;9.50;;;;;;;0.68;61.41;100585.11;25110;1315;3026500;-70
2022/03/15 00:40:37;;;;;;;17.80;10.60;;;;;;;0.60;61.70;100582.02;25107;1316;3026318;-69
2022/03/15 00:43:06;;;;;;;24.60;12.20;;;;;;;0.61;61.59;100584.09;25134;1315;3028912;-69
2022/03/15 00:45:35;;;;;;;23.00;10.30;;;;;;;0.60;61.81;100581.16;25130;1315;3050723;-70
2022/03/15 00:48:05;;;;;;;22.00;10.30;;;;;;;0.65;61.56;100578.38;25070;1315;3027218;-69
2022/03/15 00:50:39;;;;;;;16.90;9.40;;;;;;;0.62;61.52;100572.53;25099;1315;3056797;-71
2022/03/15 00:53:10;;;;;;;16.40;9.20;;;;;;;0.59;61.63;100571.16;25091;1315;3027517;-71
2022/03/15 00:55:39;;;;;;;17.70;9.70;;;;;;;0.56;61.75;100575.98;25120;1315;3028990;-69
2022/03/15 00:58:10;;;;;;;21.90;10.00;;;;;;;0.59;61.77;100571.67;25146;1315;3026361;-68
2022/03/15 01:00:48;;;;;;;15.60;8.90;;;;;;;0.54;62.24;100567.55;25178;1315;3026848;-71
2022/03/15 01:03:18;;;;;;;16.40;9.20;;;;;;;0.54;62.20;100559.27;25170;1316;3053994;-70
2022/03/15 01:05:48;;;;;;;21.10;10.40;;;;;;;0.60;61.74;100552.19;25136;1315;3029920;-69
2022/03/15 01:08:17;;;;;;;21.30;10.00;;;;;;;0.58;61.99;100560.64;25099;1315;3027546;-68
2022/03/15 01:10:46;;;;;;;17.00;9.60;;;;;;;0.58;61.60;100556.85;25129;1316;3050918;-70
2022/03/15 01:13:15;;;;;;;15.60;9.10;;;;;;;0.59;61.98;100548.40;25093;1315;3027282;-69
2022/03/15 01:15:45;;;;;;;15.50;8.50;;;;;;;0.55;62.02;100545.30;25131;1315;3052162;-69
2022/03/15 01:18:14;;;;;;;19.70;9.60;;;;;;;0.51;62.18;100543.94;25184;1315;3029402;-72
2022/03/15 01:20:47;;;;;;;15.40;9.40;;;;;;;0.49;62.23;100549.98;25102;1315;3026573;-72
2022/03/15 01:23:16;;;;;;;16.40;8.90;;;;;;;0.52;62.22;100545.14;25136;1315;3027521;-72
2022/03/15 01:25:46;;;;;;;16.60;9.50;;;;;;;0.45;62.63;100541.54;25143;1315;3027478;-71
2022/03/15 01:28:15;;;;;;;17.30;9.40;;;;;;;0.50;62.56;100541.86;25068;1318;3028818;-69
2022/03/15 01:30:44;;;;;;;15.90;8.30;;;;;;;0.55;62.44;100540.82;25129;1316;3049412;-69
2022/03/15 01:33:13;;;;;;;14.90;8.80;;;;;;;0.55;62.47;100539.95;25044;1317;3026772;-69
2022/03/15 01:35:43;;;;;;;13.30;8.00;;;;;;;0.52;62.52;100538.59;25119;1315;3026386;-72
2022/03/15 01:38:12;;;;;;;15.60;9.50;;;;;;;0.49;62.59;100539.80;25147;1316;3026884;-68
2022/03/15 01:40:41;;;;;;;16.60;7.60;;;;;;;0.52;62.59;100537.71;25110;1316;3026825;-70
2022/03/15 01:43:12;;;;;;;20.60;10.00;;;;;;;0.50;62.72;100544.29;25198;1315;3026962;-70
2022/03/15 01:45:41;;;;;;;17.50;8.80;;;;;;;0.53;62.78;100541.86;25147;1316;3026209;-70
2022/03/15 01:48:11;;;;;;;19.00;10.20;;;;;;;0.48;62.92;100538.08;25141;1316;3048540;-68
2022/03/15 01:50:40;;;;;;;18.50;10.00;;;;;;;0.46;62.84;100539.64;25155;1315;3026031;-70
2022/03/15 01:53:09;;;;;;;15.30;8.70;;;;;;;0.46;62.93;100534.45;25117;1315;3026871;-69
2022/03/15 01:55:42;;;;;;;18.60;9.70;;;;;;;0.42;63.17;100529.65;25155;1315;3052699;-71
2022/03/15 01:58:13;;;;;;;21.70;9.80;;;;;;;0.42;63.13;100531.55;25119;1316;3027810;-70
2022/03/15 02:00:45;;;;;;;16.40;9.30;;;;;;;0.41;63.22;100528.44;25076;1315;3026935;-71
2022/03/15 02:03:14;;;;;;;17.80;8.70;;;;;;;0.40;63.30;100526.55;25131;1315;3026622;-67
2022/03/15 02:05:43;;;;;;;16.90;9.80;;;;;;;0.41;63.25;100526.36;25106;1315;3026584;-67
2022/03/15 02:08:14;;;;;;;23.30;11.20;;;;;;;0.36;63.64;100534.31;25134;1316;3026331;-69
2022/03/15 02:10:46;;;;;;;22.60;10.80;;;;;;;0.42;63.08;100527.06;25130;1316;3026767;-68
2022/03/15 02:13:16;;;;;;;18.10;9.70;;;;;;;0.38;63.36;100523.62;25149;1316;3026741;-72
2022/03/15 02:15:45;;;;;;;17.00;9.70;;;;;;;0.36;63.60;100531.38;25129;1315;3026274;-67
2022/03/15 02:18:14;;;;;;;26.30;11.30;;;;;;;0.33;63.77;100535.86;25168;1315;3055395;-70
2022/03/15 02:20:44;;;;;;;18.60;10.30;;;;;;;0.30;63.81;100525.54;25098;1319;3026393;-69
2022/03/15 02:23:16;;;;;;;19.80;9.60;;;;;;;0.32;63.85;100529.84;23753;1316;8545937;-69
2022/03/15 02:25:46;;;;;;;14.90;8.20;;;;;;;0.28;63.87;100535.01;25102;1316;3026995;-68
2022/03/15 02:28:15;;;;;;;19.10;9.00;;;;;;;0.25;64.16;100525.36;25028;1315;3027859;-69
2022/03/15 02:30:44;;;;;;;19.80;9.90;;;;;;;0.24;64.30;100526.41;25122;1316;3055424;-69
2022/03/15 02:33:16;;;;;;;14.60;9.40;;;;;;;0.20;64.36;100531.40;25127;1315;3026366;-70
2022/03/15 02:35:45;;;;;;;18.20;9.50;;;;;;;0.23;64.32;100527.27;25116;1315;3025881;-73
2022/03/15 02:38:16;;;;;;;16.40;7.50;;;;;;;0.22;64.30;100525.02;25153;1317;3026540;-71
2022/03/15 02:40:45;;;;;;;20.90;9.90;;;;;;;0.22;64.38;100528.98;25143;1315;3026757;-69
2022/03/15 02:43:18;;;;;;;20.20;10.70;;;;;;;0.20;64.61;100525.37;25193;1315;3026679;-70
2022/03/15 02:45:48;;;;;;;19.80;10.20;;;;;;;0.16;64.69;100525.38;25161;1315;3030518;-69
2022/03/15 02:48:18;;;;;;;15.70;8.80;;;;;;;0.12;65.02;100536.06;25124;1316;3028014;-71
2022/03/15 02:50:48;;;;;;;20.60;9.90;;;;;;;0.11;65.09;100529.34;25145;1315;3028461;-67
2022/03/15 02:53:18;;;;;;;19.80;10.50;;;;;;;0.05;65.47;100526.08;25097;1316;3027763;-70
2022/03/15 02:55:47;;;;;;;17.10;10.40;;;;;;;0.06;65.20;100526.92;25147;1315;3026691;-71
2022/03/15 02:58:19;;;;;;;19.40;10.10;;;;;;;0.04;65.45;100529.87;25128;1316;3052926;-69
2022/03/15 03:00:49;;;;;;;18.40;10.40;;;;;;;0.02;65.55;100520.91;25126;1316;3027250;-69
2022/03/15 03:03:18;;;;;;;16.00;9.50;;;;;;;0.05;65.48;100520.21;25126;1315;3029544;-69
2022/03/15 03:05:47;;;;;;;16.70;8.40;;;;;;;-0.02;65.86;100531.59;25126;1315;3056045;-69
2022/03/15 03:08:17;;;;;;;18.30;9.60;;;;;;;-0.10;65.98;100524.36;25106;1315;3028806;-70
2022/03/15 03:10:46;;;;;;;17.40;9.20;;;;;;;-0.04;66.03;100516.26;25162;1315;3028081;-70
2022/03/15 03:13:15;;;;;;;13.70;8.90;;;;;;;-0.07;66.14;100514.03;25119;1316;3055538;-69
2022/03/15 03:15:44;;;;;;;12.10;8.20;;;;;;;-0.05;66.03;100508.86;25139;1315;3027187;-68
2022/03/15 03:18:15;;;;;;;20.60;8.50;;;;;;;-0.09;66.21;100521.09;25149;1316;3026893;-69
2022/03/15 03:20:46;;;;;;;18.20;9.70;;;;;;;-0.07;65.92;100504.73;25143;1319;3026467;-70
2022/03/15 03:23:17;;;;;;;15.10;9.30;;;;;;;-0.13;66.39;100508.33;25138;1316;3029230;-72
2022/03/15 03:25:46;;;;;;;17.90;9.40;;;;;;;-0.18;66.51;100500.41;25184;1315;3026894;-68
2022/03/15 03:28:16;;;;;;;16.80;9.40;;;;;;;-0.17;66.57;100505.23;25099;1316;3026680;-67
2022/03/15 03:30:49;;;;;;;13.50;7.80;;;;;;;-0.18;66.46;100499.04;25109;1316;3026519;-70
2022/03/15 03:33:19;;;;;;;16.10;8.20;;;;;;;-0.21;66.92;100510.23;25192;1316;3026292;-70
2022/03/15 03:35:49;;;;;;;15.60;9.20;;;;;;;-0.28;67.11;100506.79;25124;1315;3026922;-69
2022/03/15 03:38:19;;;;;;;14.80;8.00;;;;;;;-0.25;67.19;100504.89;25100;1315;3026557;-70
2022/03/15 03:40:48;;;;;;;14.50;9.40;;;;;;;-0.28;67.17;100505.41;25163;1316;3028373;-69
2022/03/15 03:43:18;;;;;;;13.20;8.30;;;;;;;-0.28;67.08;100499.73;25179;1315;3028254;-69
2022/03/15 03:45:47;;;;;;;15.00;7.50;;;;;;;-0.25;67.27;100512.98;25122;1315;3030042;-71
2022/03/15 03:48:17;;;;;;;13.90;7.60;;;;;;;-0.29;67.43;100504.20;25143;1315;3049299;-68
2022/03/15 03:50:49;;;;;;;14.00;8.00;;;;;;;-0.29;67.51;100503.35;25098;1316;3026184;-70
2022/03/15 03:53:21;;;;;;;11.40;5.70;;;;;;;-0.27;67.65;100506.27;25103;1315;3028301;-71
2022/03/15 03:55:50;;;;;;;14.90;7.40;;;;;;;0.47;66.06;100502.21;25117;1316;3026672;-71
2022/03/15 03:58:20;;;;;;;16.10;8.20;;;;;;;0.99;63.72;100499.78;25118;1319;3028223;-71
2022/03/15 04:00:49;;;;;;;10.50;6.80;;;;;;;1.00;63.46;100497.19;25110;1316;3026320;-69
2022/03/15 04:03:19;;;;;;;14.20;8.10;;;;;;;0.75;63.71;100493.86;25187;1316;3058341;-71
2022/03/15 04:05:49;;;;;;;14.00;7.20;;;;;;;0.54;64.51;100494.95;25148;1316;3029376;-72
2022/03/15 04:08:18;;;;;;;12.80;7.90;;;;;;;0.44;64.80;100496.02;25119;1317;3027548;-71
2022/03/15 04:10:50;;;;;;;19.90;9.30;;;;;;;0.24;65.28;100505.89;25097;1316;3026693;-70
2022/03/15 04:13:19;;;;;;;15.00;8.40;;;;;;;0.11;65.98;100503.50;25129;1315;3029354;-70
2022/03/15 04:16:02;;;;;;;16.10;7.90;;;;;;;0.08;65.87;100496.61;25169;1315;3050495;-70
2022/03/15 04:18:33;;;;;;;19.60;8.80;;;;;;;-0.02;66.44;100500.59;25133;1315;3026563;-66
2022/03/15 04:21:02;;;;;;;17.80;9.10;;;;;;;-0.05;66.49;100494.90;25158;1315;3026545;-71
2022/03/15 04:23:32;;;;;;;12.80;7.30;;;;;;;-0.16;67.00;100491.13;25126;1315;3026687;-67
2022/03/15 04:26:02;;;;;;;16.30;8.40;;;;;;;-0.19;67.06;100493.52;25170;1315;3026464;-70
2022/03/15 04:28:35;;;;;;;11.30;7.00;;;;;;;-0.20;67.26;100502.99;25155;1315;3026950;-70
2022/03/15 04:31:05;;;;;;;14.00;8.50;;;;;;;-0.22;67.48;100501.97;25132;1316;3026772;-70
2022/03/15 04:33:42;;;;;;;16.40;9.30;;;;;;;-0.24;67.37;100499.73;25140;1316;3071812;-70
2022/03/15 04:36:12;;;;;;;16.00;8.40;;;;;;;-0.25;67.63;100513.16;25144;1315;3027265;-69
2022/03/15 04:38:43;;;;;;;16.40;8.00;;;;;;;-0.24;67.66;100504.90;25131;1316;3026852;-73
2022/03/15 04:41:12;;;;;;;13.40;9.10;;;;;;;-0.18;67.24;100508.34;25085;1318;3028911;-71
2022/03/15 04:43:41;;;;;;;16.40;9.00;;;;;;;-0.27;67.76;100504.72;25097;1316;3030250;-69
2022/03/15 04:46:11;;;;;;;14.00;7.70;;;;;;;-0.20;67.59;100500.25;25138;1315;3026922;-69
2022/03/15 04:48:42;;;;;;;17.40;9.00;;;;;;;-0.23;67.72;100506.62;25083;1315;3027327;-69
2022/03/15 04:51:14;;;;;;;10.20;6.40;;;;;;;-0.18;67.92;100498.52;25085;1315;3026465;-69
2022/03/15 04:53:43;;;;;;;15.90;7.40;;;;;;;0.56;66.18;100485.30;25076;1316;3028684;-72
2022/03/15 04:56:12;;;;;;;13.30;7.20;;;;;;;1.16;64.36;100483.13;25077;1316;3026372;-71
2022/03/15 04:58:43;;;;;;;13.60;7.00;;;;;;;1.06;63.60;100493.38;25104;1315;3053670;-70
2022/03/15 05:01:12;;;;;;;14.30;8.00;;;;;;;0.87;64.25;100493.12;25074;1316;3028298;-69
2022/03/15 05:03:41;;;;;;;14.10;7.90;;;;;;;0.68;64.32;100485.26;25080;1315;3026232;-69
2022/03/15 05:06:11;;;;;;;19.50;8.50;;;;;;;0.69;64.62;100485.42;25087;1316;3029844;-72
2022/03/15 05:08:41;;;;;;;15.60;8.30;;;;;;;0.60;64.76;100489.61;25124;1316;3026338;-72
2022/03/15 05:11:30;;;;;;;22.70;9.40;;;;;;;0.39;65.39;100492.95;25099;1316;3056470;-71
2022/03/15 05:14:01;;;;;;;16.00;7.90;;;;;;;0.30;65.79;100487.45;25109;1316;3026122;-70
2022/03/15 05:16:31;;;;;;;16.30;9.00;;;;;;;0.23;66.25;100487.11;25091;1316;3027047;-68
2022/03/15 05:19:20;;;;;;;17.60;9.60;;;;;;;0.18;66.35;100494.19;25086;1317;3053974;-69
2022/03/15 05:21:54;;;;;;;15.70;9.80;;;;;;;0.13;66.69;100490.22;25112;1314;3026508;-70
2022/03/15 05:24:23;;;;;;;17.60;9.30;;;;;;;0.13;66.64;100492.64;25088;1316;3027250;-73
2022/03/15 05:26:57;;;;;;;17.00;9.60;;;;;;;0.11;66.70;100494.54;25156;1316;3027187;-72
2022/03/15 05:29:27;;;;;;;17.30;9.10;;;;;;;0.09;66.64;100492.13;25110;1315;3026500;-70
2022/03/15 05:31:57;;;;;;;19.40;9.50;;;;;;;0.12;66.79;100491.09;25110;1316;3028803;-70
2022/03/15 05:34:27;;;;;;;12.00;8.10;;;;;;;0.16;66.75;100491.59;25060;1316;3027813;-73
2022/03/15 05:36:57;;;;;;;16.30;8.60;;;;;;;0.12;66.63;100491.09;25086;1315;3028873;-72
2022/03/15 05:39:27;;;;;;;15.50;8.10;;;;;;;0.12;66.72;100487.48;25169;1315;3025977;-72
2022/03/15 05:41:56;;;;;;;19.50;10.00;;;;;;;0.15;66.68;100487.12;25142;1314;3026815;-72
2022/03/15 05:44:27;;;;;;;13.80;8.60;;;;;;;0.17;66.85;100488.85;25076;1315;3028087;-70
2022/03/15 05:46:57;;;;;;;16.30;9.90;;;;;;;0.19;66.75;100489.52;25058;1318;3026604;-71
2022/03/15 05:49:26;;;;;;;14.50;8.80;;;;;;;0.16;66.65;100480.41;25146;1316;3026506;-71
2022/03/15 05:51:55;;;;;;;20.90;10.80;;;;;;;0.18;66.83;100484.18;25089;1316;3048786;-72
2022/03/15 05:54:25;;;;;;;21.60;10.50;;;;;;;0.17;66.75;100487.98;25097;1316;3026786;-68
2022/03/15 05:56:54;;;;;;;19.90;9.80;;;;;;;0.28;66.68;100487.96;25142;1315;3026387;-72
2022/03/15 05:59:24;;;;;;;17.10;9.50;;;;;;;0.33;66.51;100487.60;25109;1315;3026306;-70
2022/03/15 06:01:53;;;;;;;18.00;8.70;;;;;;;0.34;66.29;100487.09;25110;1315;3028323;-68
2022/03/15 06:04:26;;;;;;;21.70;9.80;;;;;;;0.38;66.30;100491.04;25124;1315;3026655;-73
2022/03/15 06:06:57;;;;;;;23.70;10.80;;;;;;;0.50;65.76;100488.94;25128;1315;3051756;-71
2022/03/15 06:09:26;;;;;;;19.70;9.90;;;;;;;0.48;66.21;100485.84;25134;1316;3028355;-70
2022/03/15 06:11:58;;;;;;;18.90;10.60;;;;;;;0.52;65.97;100490.66;25138;1316;3027791;-71
2022/03/15 06:14:26;;;;;;;19.40;10.20;;;;;;;0.63;65.64;100490.11;25154;1315;3026336;-70
2022/03/15 06:16:56;;;;;;;21.60;9.60;;;;;;;0.69;65.49;100486.98;25158;1315;3026783;-68
2022/03/15 06:19:45;;;;;;;21.30;9.70;;;;;;;0.66;65.57;100481.31;25131;1316;3048265;-71
2022/03/15 06:22:34;;;;;;;17.20;9.20;;;;;;;0.73;65.22;100487.13;25143;1315;3055182;-69
2022/03/15 06:25:04;;;;;;;20.10;9.50;;;;;;;0.83;64.97;100484.69;25105;1315;3026419;-68
2022/03/15 06:27:35;;;;;;;18.20;9.30;;;;;;;0.85;64.90;100483.13;25153;1315;3029743;-69
2022/03/15 06:30:06;;;;;;;16.70;10.20;;;;;;;0.91;64.77;100474.82;25078;1315;3027006;-69
2022/03/15 06:32:36;;;;;;;19.20;10.70;;;;;;;0.95;64.79;100477.89;25101;1315;3027580;-71
2022/03/15 06:35:07;;;;;;;20.20;10.30;;;;;;;1.02;64.48;100474.92;25126;1315;3030218;-68
2022/03/15 06:37:42;;;;;;;19.50;10.00;;;;;;;1.02;64.48;100470.96;25074;1316;3027573;-69
2022/03/15 06:40:12;;;;;;;22.50;10.00;;;;;;;1.05;64.76;100469.73;25108;1315;3049571;-72
2022/03/15 06:42:42;;;;;;;21.00;10.50;;;;;;;1.18;63.96;100470.70;25157;1315;3028277;-71
2022/03/15 06:45:11;;;;;;;18.00;9.40;;;;;;;1.19;64.24;100465.35;25120;1315;3028904;-70
2022/03/15 06:47:44;;;;;;;17.30;8.70;;;;;;;1.22;63.76;100477.41;25159;1315;3031473;-69
2022/03/15 06:50:14;;;;;;;21.00;9.60;;;;;;;1.24;63.75;100462.90;25101;1315;3026338;-67
2022/03/15 06:52:44;;;;;;;23.30;10.70;;;;;;;1.25;63.64;100467.89;25110;1314;3029960;-69
2022/03/15 06:55:13;;;;;;;17.00;9.10;;;;;;;1.24;63.63;100467.55;25123;1316;3029256;-71
2022/03/15 06:57:42;;;;;;;23.40;10.40;;;;;;;1.27;63.69;100465.30;25158;1315;3025848;-70
2022/03/15 07:00:13;;;;;;;18.00;8.30;;;;;;;1.33;63.16;100464.20;25171;1315;3027259;-68
2022/03/15 07:02:44;;;;;;;19.60;9.70;;;;;;;1.33;63.27;100468.70;25129;1315;3026256;-68
2022/03/15 07:05:14;;;;;;;22.20;10.70;;;;;;;1.30;63.68;100468.02;25118;1315;3026688;-65
2022/03/15 07:07:44;;;;;;;18.40;9.80;;;;;;;1.42;63.03;100465.89;25131;1315;3027149;-68
2022/03/15 07:10:17;;;;;;;18.60;10.40;;;;;;;1.46;62.96;100467.91;25121;1315;3027714;-65
2022/03/15 07:12:55;;;;;;;22.50;11.30;;;;;;;1.45;63.08;100476.22;25118;1316;3056656;-69
2022/03/15 07:15:26;;;;;;;23.60;12.50;;;;;;;1.50;63.13;100465.31;25117;1316;3026748;-71
2022/03/15 07:17:57;;;;;;;22.20;11.40;;;;;;;1.67;62.77;100466.04;25102;1316;3026952;-69
2022/03/15 07:20:31;;;;;;;23.00;11.50;;;;;;;1.72;62.58;100460.98;25179;1315;3054784;-70
2022/03/15 07:23:00;;;;;;;24.10;11.70;;;;;;;1.86;62.33;100460.52;25149;1315;3027524;-64
2022/03/15 07:25:30;;;;;;;20.70;11.70;;;;;;;1.96;62.24;100457.83;25122;1315;3026033;-65
2022/03/15 07:27:59;;;;;;;21.90;10.60;;;;;;;2.13;61.79;100459.40;25096;1315;3052296;-67
2022/03/15 07:30:28;;;;;;;23.90;12.00;;;;;;;2.16;61.33;100460.41;25096;1315;3026681;-64
2022/03/15 07:32:59;;;;;;;18.50;10.80;;;;;;;2.14;61.51;100457.66;25133;1315;3029648;-70
2022/03/15 07:35:30;;;;;;;21.20;11.20;;;;;;;2.22;61.33;100454.80;25075;1315;3026821;-64
2022/03/15 07:38:01;;;;;;;21.40;11.00;;;;;;;2.23;61.61;100458.08;25105;1315;3026149;-63
2022/03/15 07:40:31;;;;;;;25.90;11.80;;;;;;;2.49;61.07;100458.84;25130;1315;3028172;-71
2022/03/15 07:43:01;;;;;;;21.70;10.60;;;;;;;2.71;60.58;100464.64;25112;1315;3049051;-67
2022/03/15 07:45:32;;;;;;;23.10;11.40;;;;;;;2.86;59.68;100463.93;25169;1315;3028585;-66
2022/03/15 07:48:02;;;;;;;21.10;11.30;;;;;;;2.86;59.68;100467.91;25087;1315;3027008;-64
2022/03/15 07:50:32;;;;;;;23.80;11.00;;;;;;;2.81;59.66;100479.56;25090;1315;3026660;-68
2022/03/15 07:53:02;;;;;;;22.20;10.80;;;;;;;2.75;59.53;100477.40;25136;1315;3029002;-66
2022/03/15 07:55:31;;;;;;;18.60;9.00;;;;;;;2.75;59.71;100475.66;25107;1315;3025970;-65
2022/03/15 07:58:01;;;;;;;14.10;8.50;;;;;;;2.73;59.29;100469.98;25101;1315;3029632;-65
2022/03/15 08:00:31;;;;;;;16.90;8.70;;;;;;;2.71;59.58;100471.02;25121;1314;3048998;-66
2022/03/15 08:03:00;;;;;;;19.70;9.60;;;;;;;2.73;59.53;100475.85;25121;1314;3027168;-66
2022/03/15 08:05:31;;;;;;;18.00;9.80;;;;;;;2.81;59.32;100471.26;25129;1315;3027626;-66
2022/03/15 08:08:00;;;;;;;13.60;8.50;;;;;;;2.89;58.89;100468.56;25112;1315;3026292;-62
2022/03/15 08:10:30;;;;;;;16.30;8.50;;;;;;;2.96;58.82;100470.55;25105;1315;3026566;-69
2022/03/15 08:13:02;;;;;;;18.70;8.60;;;;;;;2.97;58.74;100471.58;25136;1315;3049993;-65
2022/03/15 08:15:32;;;;;;;16.30;9.60;;;;;;;2.93;58.95;100474.23;25158;1315;3026614;-65
2022/03/15 08:18:03;;;;;;;19.30;9.40;;;;;;;2.97;59.31;100471.05;25112;1315;3026500;-67
2022/03/15 08:20:33;;;;;;;19.60;9.20;;;;;;;3.25;58.70;100471.69;25097;1315;3026805;-66
2022/03/15 08:23:02;;;;;;;18.50;8.80;;;;;;;3.16;58.49;100471.15;25152;1315;3026610;-67
2022/03/15 08:25:31;;;;;;;19.00;8.90;;;;;;;3.20;58.50;100471.06;25075;1315;3026544;-66
2022/03/15 08:28:01;;;;;;;19.60;9.10;;;;;;;3.11;58.68;100478.14;25108;1314;3054153;-65
2022/03/15 08:30:30;;;;;;;20.80;8.50;;;;;;;3.24;58.87;100467.05;25131;1315;3027254;-66
2022/03/15 08:33:00;;;;;;;16.80;8.20;;;;;;;3.34;58.77;100470.36;25114;1315;3026921;-66
2022/03/15 08:35:30;;;;;;;18.00;10.10;;;;;;;3.40;59.19;100469.93;25102;1315;3026692;-64
2022/03/15 08:38:05;;;;;;;16.40;9.70;;;;;;;3.40;59.51;100474.60;25126;1315;3053353;-67
2022/03/15 08:40:34;;;;;;;21.70;9.20;;;;;;;3.43;59.98;100476.45;25152;1315;3026471;-68
2022/03/15 08:43:17;;;;;;;22.00;10.40;;;;;;;3.51;59.76;100462.15;25093;1315;3071248;-65
2022/03/15 08:45:46;;;;;;;18.40;9.30;;;;;;;3.51;59.97;100463.88;25081;1315;3026169;-65
2022/03/15 08:48:17;;;;;;;19.50;10.20;;;;;;;3.54;59.93;100469.36;25132;1316;3026387;-64
2022/03/15 08:50:46;;;;;;;13.60;8.00;;;;;;;3.64;59.81;100467.65;25136;1315;3026490;-64
2022/03/15 08:53:16;;;;;;;14.00;8.30;;;;;;;3.59;59.35;100463.92;25066;1315;3026278;-65
2022/03/15 08:55:45;;;;;;;14.90;8.00;;;;;;;3.70;58.94;100460.44;25096;1315;3027138;-65
2022/03/15 08:58:15;;;;;;;18.60;8.50;;;;;;;3.87;58.39;100454.97;25099;1315;3026129;-65
2022/03/15 09:00:48;;;;;;;14.30;8.60;;;;;;;4.06;57.94;100449.61;25218;1315;3028657;-65
2022/03/15 09:03:17;;;;;;;16.10;7.90;;;;;;;4.15;56.82;100453.96;25124;1316;3026791;-67
2022/03/15 09:05:48;;;;;;;15.60;8.00;;;;;;;4.39;55.73;100448.65;25173;1315;3026657;-66
2022/03/15 09:08:19;;;;;;;12.10;6.90;;;;;;;4.44;55.35;100447.51;25093;1315;3026503;-65
2022/03/15 09:10:49;;;;;;;13.90;7.20;;;;;;;4.47;55.27;100452.82;25109;1316;3029739;-65
2022/03/15 09:13:18;;;;;;;16.90;7.60;;;;;;;4.56;54.73;100450.22;25014;1315;3026928;-67
2022/03/15 09:15:48;;;;;;;17.30;7.80;;;;;;;4.62;54.76;100451.30;25139;1315;3027108;-67
2022/03/15 09:18:18;;;;;;;15.10;7.60;;;;;;;4.81;54.26;100453.53;25159;1315;3027589;-64
2022/03/15 09:20:47;;;;;;;12.60;7.20;;;;;;;4.82;54.33;100448.65;25105;1315;3028880;-68
2022/03/15 09:23:18;;;;;;;19.20;8.30;;;;;;;4.91;53.99;100452.10;25097;1315;3052161;-66
2022/03/15 09:25:49;;;;;;;14.40;7.60;;;;;;;5.06;53.79;100451.61;25157;1315;3026577;-66
2022/03/15 09:28:18;;;;;;;13.60;7.60;;;;;;;5.27;53.66;100458.06;25121;1315;3027103;-65
2022/03/15 09:30:47;;;;;;;15.60;7.30;;;;;;;5.31;53.49;100458.00;25092;1316;3027026;-68
2022/03/15 09:33:20;;;;;;;18.60;8.50;;;;;;;5.38;53.40;100460.59;25102;1315;3053718;-69
2022/03/15 09:35:49;;;;;;;14.00;7.00;;;;;;;5.55;53.15;100460.21;25083;1315;3026140;-67
2022/03/15 09:38:20;;;;;;;11.70;6.60;;;;;;;5.70;53.08;100462.97;25100;1315;3026230;-65
2022/03/15 09:40:51;;;;;;;11.60;5.80;;;;;;;5.71;53.34;100469.39;25048;1315;3026547;-68
2022/03/15 09:43:22;;;;;;;13.60;7.00;;;;;;;5.71;53.50;100465.37;25140;1315;3026569;-66
2022/03/15 09:45:51;;;;;;;11.20;6.50;;;;;;;5.80;53.74;100459.94;25108;1316;3029704;-67
2022/03/15 09:48:22;;;;;;;11.00;6.60;;;;;;;5.88;53.87;100455.23;25095;1315;3026300;-65
2022/03/15 09:50:51;;;;;;;13.00;7.20;;;;;;;6.18;53.57;100455.19;25102;1315;3026637;-70
2022/03/15 09:53:21;;;;;;;10.30;5.60;;;;;;;6.24;53.49;100456.77;25094;1315;3026275;-68
2022/03/15 09:55:51;;;;;;;16.60;8.10;;;;;;;6.19;53.71;100459.16;25101;1315;3026987;-68
2022/03/15 09:58:21;;;;;;;20.50;6.10;;;;;;;6.18;53.69;100449.43;25115;1315;3026685;-69
2022/03/15 10:00:54;;;;;;;16.20;6.50;;;;;;;6.03;53.95;100457.11;25124;1315;3027199;-66
2022/03/15 10:03:24;;;;;;;14.70;7.00;;;;;;;6.18;53.97;100449.06;25111;1316;3029302;-68
2022/03/15 10:05:53;;;;;;;16.60;6.40;;;;;;;6.43;53.35;100453.45;25108;1315;3026453;-66
2022/03/15 10:08:22;;;;;;;12.70;6.70;;;;;;;6.37;53.33;100450.67;25114;1315;3026886;-67
2022/03/15 10:10:56;;;;;;;11.90;6.20;;;;;;;6.40;53.04;100441.86;25058;1318;3026876;-66
2022/03/15 10:13:26;;;;;;;10.70;6.30;;;;;;;6.83;52.36;100441.89;25134;1316;3026472;-68
2022/03/15 10:15:59;;;;;;;14.60;6.60;;;;;;;6.96;51.86;100452.63;25151;1315;3027704;-66
2022/03/15 10:18:28;;;;;;;9.40;6.20;;;;;;;6.82;52.19;100454.61;25150;1314;3028150;-67
2022/03/15 10:20:58;;;;;;;10.30;5.40;;;;;;;6.71;52.36;100441.70;25118;1315;3026619;-68
2022/03/15 10:23:43;;;;;;;9.70;6.50;;;;;;;6.51;52.71;100444.70;25237;1315;3026748;-67
2022/03/15 10:26:25;;;;;;;9.50;6.00;;;;;;;6.74;52.61;100452.06;25246;1315;3054650;-65
2022/03/15 10:28:56;;;;;;;11.30;5.50;;;;;;;6.97;52.12;100444.23;25117;1315;3058655;-65
2022/03/15 10:31:25;;;;;;;11.80;5.60;;;;;;;7.18;51.47;100446.05;25122;1315;3029281;-65
2022/03/15 10:34:01;;;;;;;11.30;6.20;;;;;;;7.15;51.00;100446.84;25163;1315;3026005;-70
2022/03/15 10:36:39;;;;;;;13.10;7.90;;;;;;;7.14;50.94;100449.83;25127;1315;3051771;-66
2022/03/15 10:39:09;;;;;;;13.70;5.90;;;;;;;6.97;50.65;100448.23;25128;1315;3071039;-67
2022/03/15 10:41:59;;;;;;;11.60;5.50;;;;;;;6.99;50.71;100452.02;25136;1315;3029785;-68
2022/03/15 10:44:29;;;;;;;8.80;5.20;;;;;;;7.04;50.62;100445.94;25081;1315;3052815;-67
2022/03/15 10:47:12;;;;;;;11.70;5.60;;;;;;;7.20;50.58;100446.51;25153;1315;3026517;-66
2022/03/15 10:49:55;;;;;;;13.50;6.30;;;;;;;7.19;50.79;100445.66;25058;1315;3056751;-67
2022/03/15 10:52:40;;;;;;;8.80;5.40;;;;;;;7.35;50.26;100437.84;25072;1316;3052187;-66
2022/03/15 10:55:39;;;;;;;14.50;5.30;;;;;;;7.51;49.48;100440.48;25143;1315;3053192;-65
2022/03/15 10:58:10;;;;;;;11.20;5.90;;;;;;;7.47;49.70;100444.95;25139;1316;3051329;-66
2022/03/15 11:00:42;;;;;;;8.90;5.80;;;;;;;7.40;50.36;100441.70;25104;1315;3026689;-68
2022/03/15 11:03:19;;;;;;;9.60;6.00;;;;;;;7.48;49.61;100439.00;25046;1313;3027373;-68
2022/03/15 11:05:50;;;;;;;10.70;6.60;;;;;;;7.55;48.75;100447.64;24973;1315;3054792;-68
2022/03/15 11:08:21;;;;;;;14.00;7.10;;;;;;;7.28;48.73;100441.39;25103;1315;3027886;-64
2022/03/15 11:11:10;;;;;;;11.90;7.30;;;;;;;7.13;49.35;100444.62;25070;1315;3056478;-68
2022/03/15 11:13:41;;;;;;;13.40;7.40;;;;;;;7.27;49.44;100441.75;25063;1315;3027839;-65
2022/03/15 11:16:13;;;;;;;13.10;7.30;;;;;;;7.17;49.11;100450.61;25102;1315;3026534;-68
2022/03/15 11:18:42;;;;;;;9.60;6.10;;;;;;;6.97;49.39;100442.50;25102;1315;3028359;-69
2022/03/15 11:21:13;;;;;;;16.20;6.20;;;;;;;7.17;48.83;100441.19;25051;1318;3026503;-66
2022/03/15 11:23:42;;;;;;;11.80;6.20;;;;;;;7.38;48.35;100432.52;25111;1317;3026450;-67